Airport View

Enter AWOS ICAO identifier for current METAR.

ex. KFNL

KAPS 192355Z AUTO 07004KT 10SM CLR 25/22 A3006 RMK AO2 T02540217 10300 20254

20 Oct 2020 00:08

Frequency: 125.45

Phone: 985-536-1009

Other Area AWOS: KMSY - KREG - K7N0 - KHDC

TAF KMSY 192320Z 2000/2106 10006KT P6SM FEW030 FEW250 FM200900 VRB03KT P6SM FEW035 SCT040 FM201100 VRB04KT P6SM FEW003 SCT035 FM201700 07008KT P6SM FEW040 FEW130